createdAt,value
2022-10-06T03:52:18.568Z,99.90
2022-10-06T03:54:48.498Z,99.90
2022-10-06T03:57:17.052Z,99.90
2022-10-06T03:59:45.552Z,99.90
2022-10-06T04:02:14.324Z,99.90
2022-10-06T04:04:42.791Z,99.90
2022-10-06T04:07:11.334Z,99.90
2022-10-06T04:09:41.224Z,99.90
2022-10-06T04:12:09.581Z,99.90
2022-10-06T04:14:38.576Z,99.90
2022-10-06T04:17:07.215Z,99.90
2022-10-06T04:19:35.794Z,99.90
2022-10-06T04:22:05.671Z,99.90
2022-10-06T04:24:34.054Z,99.90
2022-10-06T04:27:17.861Z,99.90
2022-10-06T04:29:46.820Z,99.90
2022-10-06T04:32:16.460Z,99.90
2022-10-06T04:34:44.988Z,99.90
2022-10-06T04:37:13.459Z,99.90
2022-10-06T04:39:41.974Z,99.90
2022-10-06T04:42:12.194Z,99.90
2022-10-06T04:44:41.580Z,99.90
2022-10-06T04:47:10.105Z,99.90
2022-10-06T04:49:38.668Z,99.90
2022-10-06T04:52:07.418Z,99.90
2022-10-06T04:54:35.940Z,99.90
2022-10-06T04:57:04.656Z,99.90
2022-10-06T04:59:51.989Z,99.90
2022-10-06T05:02:20.963Z,99.90
2022-10-06T05:04:49.812Z,99.90
2022-10-06T05:07:18.423Z,99.90
2022-10-06T05:09:46.980Z,99.90
2022-10-06T05:12:16.021Z,99.90
2022-10-06T05:14:47.144Z,99.90
2022-10-06T05:17:15.701Z,99.90
2022-10-06T05:19:44.305Z,99.90
2022-10-06T05:22:12.701Z,99.90
2022-10-06T05:24:41.312Z,99.90
2022-10-06T05:27:09.788Z,99.90
2022-10-06T05:29:38.224Z,99.90
2022-10-06T05:32:08.311Z,99.90
2022-10-06T05:34:36.992Z,99.90
2022-10-06T05:37:06.493Z,99.90
2022-10-06T05:39:34.943Z,99.90
2022-10-06T05:42:03.413Z,99.90
2022-10-06T05:44:32.024Z,99.90
2022-10-06T05:47:00.741Z,99.90
2022-10-06T05:49:30.674Z,99.90
2022-10-06T05:51:59.580Z,99.90
2022-10-06T05:54:28.429Z,99.90
2022-10-06T05:56:57.014Z,99.90
2022-10-06T05:59:25.735Z,99.90
2022-10-06T06:01:54.403Z,99.90
2022-10-06T06:04:22.883Z,99.90
2022-10-06T06:06:52.662Z,99.90
2022-10-06T06:09:22.422Z,99.90
2022-10-06T06:11:52.803Z,99.90
2022-10-06T06:14:44.057Z,99.90
2022-10-06T06:17:12.549Z,99.90
2022-10-06T06:19:40.973Z,99.90
2022-10-06T06:22:10.879Z,99.90
2022-10-06T06:24:39.267Z,99.90
2022-10-06T06:27:07.727Z,99.90
2022-10-06T06:29:36.162Z,99.90
2022-10-06T06:32:04.784Z,99.90
2022-10-06T06:34:33.127Z,99.90
2022-10-06T06:37:07.518Z,99.90
2022-10-06T06:39:38.547Z,99.90
2022-10-06T06:42:08.832Z,99.90
2022-10-06T06:44:37.260Z,99.90
2022-10-06T06:47:05.706Z,99.90
2022-10-06T06:49:34.182Z,99.90
2022-10-06T06:52:05.059Z,99.90
2022-10-06T06:54:33.398Z,99.90
2022-10-06T06:57:03.244Z,99.60
2022-10-06T06:59:34.121Z,99.90
2022-10-06T07:02:03.452Z,99.90
2022-10-06T07:04:33.122Z,99.90
2022-10-06T07:07:01.500Z,99.90
2022-10-06T07:09:29.877Z,99.90
2022-10-06T07:11:58.468Z,99.90
2022-10-06T07:14:28.580Z,99.90
2022-10-06T07:17:14.227Z,99.90
2022-10-06T07:20:00.002Z,99.90
2022-10-06T07:22:47.685Z,99.90
2022-10-06T07:25:25.624Z,99.90
2022-10-06T07:27:56.088Z,99.90
2022-10-06T07:30:28.257Z,99.90
2022-10-06T07:32:57.138Z,99.90
2022-10-06T07:35:26.419Z,99.90
2022-10-06T07:37:54.935Z,99.90
2022-10-06T07:40:23.473Z,99.90
2022-10-06T07:42:52.940Z,99.90
2022-10-06T07:45:41.797Z,99.90
2022-10-06T07:48:14.692Z,99.90
2022-10-06T07:50:44.766Z,99.90
2022-10-06T07:53:13.993Z,99.90
2022-10-06T07:55:44.940Z,99.90
2022-10-06T07:58:14.204Z,99.90
2022-10-06T08:00:45.385Z,99.90
2022-10-06T08:03:18.537Z,99.90
2022-10-06T08:05:47.352Z,99.90
2022-10-06T08:08:16.478Z,99.90
2022-10-06T08:10:53.152Z,99.90
2022-10-06T08:13:21.565Z,99.90
2022-10-06T08:15:51.576Z,99.90
2022-10-06T08:18:44.483Z,99.90
2022-10-06T08:21:15.056Z,99.90
2022-10-06T08:23:44.164Z,99.90
2022-10-06T08:26:15.965Z,99.90
2022-10-06T08:28:47.087Z,99.90
2022-10-06T08:31:18.028Z,99.90
2022-10-06T08:33:47.540Z,99.90
2022-10-06T08:36:18.716Z,99.90
2022-10-06T08:38:50.435Z,99.90
2022-10-06T08:41:25.228Z,99.90
2022-10-06T08:44:01.116Z,99.90
2022-10-06T08:46:37.965Z,99.90
2022-10-06T08:49:07.357Z,99.90
2022-10-06T08:51:54.146Z,99.90
2022-10-06T08:54:30.346Z,99.90
2022-10-06T08:57:10.398Z,99.90
2022-10-06T08:59:38.941Z,99.90
2022-10-06T09:02:30.365Z,99.90
2022-10-06T09:05:03.038Z,99.90
2022-10-06T09:07:43.046Z,99.90
2022-10-06T09:10:29.968Z,99.90
2022-10-06T09:13:03.079Z,99.90
2022-10-06T09:15:35.542Z,99.90
2022-10-06T09:18:17.049Z,99.90
2022-10-06T09:20:52.646Z,99.90
2022-10-06T09:23:43.077Z,99.90
2022-10-06T09:26:14.414Z,99.90
2022-10-06T09:28:46.333Z,99.90
2022-10-06T09:31:23.403Z,99.90
2022-10-06T09:33:55.702Z,99.90
2022-10-06T09:36:24.388Z,99.90
2022-10-06T09:38:55.517Z,99.90
2022-10-06T09:41:31.889Z,99.90
2022-10-06T09:44:03.172Z,99.90
2022-10-06T09:46:34.447Z,99.90
2022-10-06T09:49:25.602Z,99.90
2022-10-06T09:52:02.945Z,99.90
2022-10-06T09:54:34.827Z,99.90
2022-10-06T09:57:12.209Z,99.90
2022-10-06T09:59:45.195Z,99.90
2022-10-06T10:02:28.643Z,99.90
2022-10-06T10:04:59.524Z,99.90
2022-10-06T10:07:30.227Z,99.90
2022-10-06T10:10:20.709Z,99.90
2022-10-06T10:12:52.968Z,99.90
2022-10-06T10:15:32.073Z,99.90
2022-10-06T10:18:04.430Z,99.90
2022-10-06T10:20:38.668Z,99.90
2022-10-06T10:23:30.095Z,99.90
2022-10-06T10:26:20.747Z,99.90
2022-10-06T10:29:33.100Z,99.90
2022-10-06T10:32:12.345Z,99.90
2022-10-06T10:35:00.981Z,99.90
2022-10-06T10:37:38.360Z,99.90
2022-10-06T10:40:18.842Z,99.90
2022-10-06T10:42:52.739Z,99.90
2022-10-06T10:45:28.636Z,99.90
2022-10-06T10:47:58.936Z,99.90
2022-10-06T10:50:31.439Z,99.90
2022-10-06T10:53:10.380Z,99.90
2022-10-06T10:55:44.136Z,99.90
2022-10-06T10:58:19.453Z,99.90
2022-10-06T11:00:53.393Z,99.90
2022-10-06T11:03:21.844Z,99.90
2022-10-06T11:06:22.014Z,99.90
2022-10-06T11:08:59.459Z,99.90
2022-10-06T11:11:51.953Z,99.90
2022-10-06T11:14:34.596Z,99.90
2022-10-06T11:17:12.339Z,99.90
2022-10-06T11:19:51.257Z,99.90
2022-10-06T11:22:28.499Z,99.90
2022-10-06T11:27:48.420Z,99.90
2022-10-06T11:30:19.736Z,99.90
2022-10-06T11:33:01.664Z,99.90
2022-10-06T11:35:36.430Z,99.90
2022-10-06T11:38:12.985Z,99.90
2022-10-06T11:41:09.765Z,99.90
2022-10-06T11:43:47.899Z,99.90
2022-10-06T11:46:32.447Z,99.90
2022-10-06T11:49:39.682Z,99.90
2022-10-06T11:52:56.180Z,99.90
2022-10-06T11:55:26.618Z,99.90
2022-10-06T12:01:03.236Z,99.90
2022-10-06T12:04:06.562Z,99.90
2022-10-06T12:07:02.415Z,99.90
2022-10-06T12:10:01.047Z,99.90
2022-10-06T12:13:07.207Z,99.90
2022-10-06T12:19:19.677Z,99.90
2022-10-06T12:22:01.159Z,99.90
2022-10-06T12:24:41.478Z,99.90
2022-10-06T12:27:37.972Z,99.90
2022-10-06T12:30:18.565Z,99.90
2022-10-06T12:32:53.724Z,99.90
2022-10-06T12:35:34.207Z,99.90
2022-10-06T12:38:06.419Z,99.90
2022-10-06T12:40:55.604Z,99.90
2022-10-06T12:43:57.216Z,99.90
2022-10-06T12:46:44.923Z,99.90
2022-10-06T12:49:44.286Z,99.90
2022-10-06T12:52:46.227Z,99.90
2022-10-06T12:55:40.202Z,99.90
2022-10-06T12:58:18.442Z,99.90
2022-10-06T13:00:47.686Z,99.90
2022-10-06T13:03:19.537Z,99.90
2022-10-06T13:05:54.825Z,99.90
2022-10-06T13:08:25.213Z,99.90
2022-10-06T13:11:11.590Z,99.70
2022-10-06T13:13:47.649Z,99.80
2022-10-06T13:16:21.896Z,99.90
2022-10-06T13:18:55.050Z,99.90
2022-10-06T13:21:25.660Z,99.90
2022-10-06T13:23:54.162Z,99.90
2022-10-06T13:26:26.040Z,99.60
2022-10-06T13:28:55.503Z,99.40
2022-10-06T13:31:27.437Z,99.50
2022-10-06T13:33:59.902Z,99.70
2022-10-06T13:36:31.448Z,99.90
2022-10-06T13:39:00.549Z,99.80
2022-10-06T13:41:31.730Z,99.30
2022-10-06T13:44:04.568Z,99.40
2022-10-06T13:46:40.569Z,99.00
2022-10-06T13:49:19.006Z,99.10
2022-10-06T13:51:52.387Z,98.90
2022-10-06T13:54:29.679Z,99.20
2022-10-06T13:57:01.685Z,99.20
2022-10-06T13:59:36.928Z,99.20
2022-10-06T14:02:26.838Z,99.30
2022-10-06T14:05:20.738Z,99.50
2022-10-06T14:07:51.878Z,99.70
2022-10-06T14:10:23.511Z,99.70
2022-10-06T14:12:52.240Z,99.30
2022-10-06T14:15:23.068Z,99.10
2022-10-06T14:17:56.171Z,99.40
2022-10-06T14:20:46.054Z,99.50
2022-10-06T14:23:41.197Z,99.20
2022-10-06T14:26:14.173Z,99.40
2022-10-06T14:28:48.501Z,99.50
2022-10-06T14:31:17.401Z,99.70
2022-10-06T14:33:47.831Z,99.80
2022-10-06T14:36:22.920Z,99.70
2022-10-06T14:38:53.839Z,99.60
2022-10-06T14:41:27.782Z,99.50
2022-10-06T14:43:57.830Z,99.30
2022-10-06T14:46:26.982Z,99.40
2022-10-06T14:48:57.929Z,99.00
2022-10-06T14:51:30.975Z,98.90
2022-10-06T14:54:05.072Z,99.40
2022-10-06T14:56:35.262Z,99.30
2022-10-06T14:59:06.641Z,99.40
2022-10-06T15:01:36.796Z,99.50
2022-10-06T15:04:07.883Z,99.50
2022-10-06T15:06:53.674Z,99.40
2022-10-06T15:09:24.186Z,99.50
2022-10-06T15:11:54.169Z,99.90
2022-10-06T15:14:24.277Z,99.40
2022-10-06T15:16:55.129Z,99.20
2022-10-06T15:19:23.693Z,99.30
2022-10-06T15:21:52.203Z,99.30
2022-10-06T15:24:22.673Z,99.50
2022-10-06T15:27:08.664Z,99.70
2022-10-06T15:29:37.258Z,99.80
2022-10-06T15:32:06.819Z,99.90
2022-10-06T15:34:37.904Z,99.90
2022-10-06T15:37:07.729Z,99.90
2022-10-06T15:39:38.778Z,99.90
2022-10-06T15:42:08.978Z,99.90
2022-10-06T15:44:38.031Z,99.90
2022-10-06T15:47:07.183Z,99.90
2022-10-06T15:49:40.678Z,99.90
2022-10-06T15:52:12.389Z,99.90
2022-10-06T15:54:43.906Z,99.90
2022-10-06T15:57:20.266Z,99.90
2022-10-06T15:59:51.287Z,99.90
2022-10-06T16:02:21.490Z,99.90
2022-10-06T16:05:19.957Z,99.90
2022-10-06T16:07:48.742Z,99.90
2022-10-06T16:10:19.415Z,99.90
2022-10-06T16:12:48.193Z,99.90
2022-10-06T16:15:17.943Z,99.90
2022-10-06T16:17:46.444Z,99.90
2022-10-06T16:20:16.702Z,99.90
2022-10-06T16:22:45.200Z,99.90
2022-10-06T16:25:13.781Z,99.90
2022-10-06T16:27:43.702Z,99.90
2022-10-06T16:30:12.544Z,99.90
2022-10-06T16:32:41.354Z,99.90
2022-10-06T16:35:14.691Z,99.90
2022-10-06T16:37:50.033Z,99.90
2022-10-06T16:40:19.203Z,99.90
2022-10-06T16:42:49.147Z,99.90
2022-10-06T16:45:17.790Z,99.90
2022-10-06T16:47:46.431Z,99.90
2022-10-06T16:50:15.029Z,99.90
2022-10-06T16:52:43.665Z,99.90
2022-10-06T16:55:12.246Z,99.90
2022-10-06T16:57:40.788Z,99.90
2022-10-06T17:00:12.727Z,99.90
2022-10-06T17:02:41.386Z,99.90
2022-10-06T17:05:13.278Z,99.90
2022-10-06T17:07:41.769Z,99.90
2022-10-06T17:10:25.561Z,99.90
2022-10-06T17:12:54.039Z,99.90
2022-10-06T17:15:24.007Z,99.90
2022-10-06T17:17:55.547Z,99.90
2022-10-06T17:20:24.109Z,99.90
2022-10-06T17:22:54.596Z,99.90
2022-10-06T17:25:28.938Z,99.90
2022-10-06T17:27:59.405Z,99.90
2022-10-06T17:30:29.150Z,99.90
2022-10-06T17:32:58.038Z,99.90
2022-10-06T17:35:26.759Z,99.90
2022-10-06T17:37:56.769Z,99.90
2022-10-06T17:40:26.176Z,99.90
2022-10-06T17:42:55.024Z,99.90
2022-10-06T17:45:23.632Z,99.90
2022-10-06T17:47:53.443Z,99.90
2022-10-06T17:50:21.992Z,99.90
2022-10-06T17:52:50.345Z,99.90
2022-10-06T17:55:18.794Z,99.90
2022-10-06T17:57:47.204Z,99.90
2022-10-06T18:00:18.315Z,99.90
2022-10-06T18:02:46.723Z,99.90
2022-10-06T18:05:17.888Z,99.90
2022-10-06T18:07:46.327Z,99.90
2022-10-06T18:10:32.381Z,99.90
2022-10-06T18:13:00.686Z,99.90
2022-10-06T18:15:29.239Z,99.90
2022-10-06T18:17:58.038Z,99.90
2022-10-06T18:20:30.209Z,99.90
2022-10-06T18:22:59.429Z,99.90
2022-10-06T18:25:28.205Z,99.90
2022-10-06T18:27:56.674Z,99.90
2022-10-06T18:30:29.334Z,99.90
2022-10-06T18:38:44.569Z,99.90
2022-10-06T18:41:16.247Z,99.90
2022-10-06T18:43:47.152Z,99.90
2022-10-06T18:46:34.243Z,99.90
2022-10-06T18:49:08.860Z,99.90
2022-10-06T18:51:41.348Z,99.90
2022-10-06T18:54:12.285Z,99.90
2022-10-06T18:56:40.712Z,99.90
2022-10-06T18:59:12.387Z,99.90
2022-10-06T19:01:42.444Z,99.90
2022-10-06T19:04:14.221Z,99.90
2022-10-06T19:06:49.812Z,99.90
2022-10-06T19:09:21.044Z,99.90
2022-10-06T19:11:52.563Z,99.90
2022-10-06T19:14:22.564Z,99.90
2022-10-06T19:16:56.722Z,99.90
2022-10-06T19:19:26.553Z,99.90
2022-10-06T19:21:59.606Z,99.90
2022-10-06T19:24:29.710Z,99.90
2022-10-06T19:26:59.623Z,99.90
2022-10-06T19:29:28.245Z,99.90
2022-10-06T19:31:59.564Z,99.90
2022-10-06T19:34:28.686Z,99.90
2022-10-06T19:36:59.705Z,99.90
2022-10-06T19:39:30.723Z,99.90
2022-10-06T19:42:17.750Z,99.90
2022-10-06T19:44:46.182Z,99.90
2022-10-06T19:47:16.342Z,99.90
2022-10-06T19:49:45.397Z,99.90
2022-10-06T19:52:15.598Z,99.90
2022-10-06T19:54:44.275Z,99.90
2022-10-06T19:57:12.675Z,99.90
2022-10-06T19:59:42.932Z,99.90
2022-10-06T20:02:12.925Z,99.90
2022-10-06T20:04:41.360Z,99.90
2022-10-06T20:07:10.404Z,99.90
2022-10-06T20:09:41.220Z,99.90
2022-10-06T20:12:09.932Z,99.90
2022-10-06T20:14:38.961Z,99.90
2022-10-06T20:17:07.355Z,99.90
2022-10-06T20:19:36.262Z,99.90
2022-10-06T20:22:06.274Z,99.90
2022-10-06T20:24:35.778Z,99.90
2022-10-06T20:27:05.674Z,99.90
2022-10-06T20:29:34.800Z,99.90
2022-10-06T20:32:05.476Z,99.90
2022-10-06T20:34:34.718Z,99.90
2022-10-06T20:37:04.286Z,99.90
2022-10-06T20:39:51.749Z,99.90
2022-10-06T20:42:22.467Z,99.90
2022-10-06T20:44:51.263Z,99.90
2022-10-06T20:47:21.303Z,99.90
2022-10-06T20:49:54.537Z,99.90
2022-10-06T20:52:23.870Z,99.90
2022-10-06T20:54:52.431Z,99.90
2022-10-06T20:57:22.224Z,99.90
2022-10-06T20:59:50.770Z,99.90
2022-10-06T21:02:19.136Z,99.90
2022-10-06T21:04:47.651Z,99.90
2022-10-06T21:07:16.028Z,99.90
2022-10-06T21:09:51.884Z,99.90
2022-10-06T21:12:22.072Z,99.90
2022-10-06T21:14:50.976Z,99.90
2022-10-06T21:17:19.939Z,99.90
2022-10-06T21:19:48.277Z,99.90
2022-10-06T21:22:16.649Z,99.90
2022-10-06T21:24:45.033Z,99.90
2022-10-06T21:27:13.344Z,99.90
2022-10-06T21:29:43.956Z,99.90
2022-10-06T21:32:12.695Z,99.90
2022-10-06T21:34:41.153Z,99.90
2022-10-06T21:37:10.191Z,99.90
2022-10-06T21:39:39.029Z,99.90
2022-10-06T21:42:07.656Z,99.90
2022-10-06T21:44:36.141Z,99.90
2022-10-06T21:47:06.209Z,99.90
2022-10-06T21:49:34.746Z,99.90
2022-10-06T21:52:05.634Z,99.90
2022-10-06T21:54:34.594Z,99.90
2022-10-06T21:57:02.969Z,99.90
2022-10-06T21:59:31.462Z,99.90
2022-10-06T22:01:59.920Z,99.90
2022-10-06T22:04:29.786Z,99.90
2022-10-06T22:06:58.406Z,99.90
2022-10-06T22:09:26.901Z,99.90
2022-10-06T22:11:55.230Z,99.90
2022-10-06T22:14:23.520Z,99.90
2022-10-06T22:16:52.943Z,99.90
2022-10-06T22:19:21.391Z,99.90
2022-10-06T22:21:51.304Z,99.90
2022-10-06T22:24:21.858Z,99.90
2022-10-06T22:26:50.981Z,99.90
2022-10-06T22:29:20.642Z,99.90
2022-10-06T22:31:49.607Z,99.90
2022-10-06T22:34:19.920Z,99.90
2022-10-06T22:36:48.557Z,99.90
2022-10-06T22:39:18.903Z,99.90
2022-10-06T22:41:47.772Z,99.90
2022-10-06T22:44:16.748Z,99.90
2022-10-06T22:46:45.436Z,99.90
2022-10-06T22:49:13.972Z,99.90
